createdAt,value
2023-05-25T00:01:31.132Z,9.54
2023-05-25T00:04:05.103Z,9.21
2023-05-25T00:06:41.376Z,9.38
2023-05-25T00:09:14.588Z,9.16
2023-05-25T00:11:47.827Z,8.94
2023-05-25T00:14:22.620Z,9.12
2023-05-25T00:16:55.821Z,9.42
2023-05-25T00:19:32.410Z,9.23
2023-05-25T00:22:05.899Z,8.72
2023-05-25T00:24:40.170Z,8.79
2023-05-25T00:27:13.305Z,8.85
2023-05-25T00:29:48.296Z,9.17
2023-05-25T00:32:21.536Z,9.23
2023-05-25T00:34:55.823Z,9.27
2023-05-25T00:37:29.063Z,8.89
2023-05-25T00:40:02.344Z,9.41
2023-05-25T00:42:36.538Z,9.47
2023-05-25T00:45:12.288Z,9.36
2023-05-25T00:47:46.819Z,8.39
2023-05-25T00:50:38.244Z,9.18
2023-05-25T00:53:13.873Z,9.27
2023-05-25T00:55:55.688Z,8.75
2023-05-25T00:58:32.452Z,8.43
2023-05-25T01:01:11.801Z,9.18
2023-05-25T01:03:53.975Z,9.01
2023-05-25T01:06:32.125Z,9.01
2023-05-25T01:09:08.203Z,8.77
2023-05-25T01:11:45.609Z,8.99
2023-05-25T01:14:22.217Z,9.06
2023-05-25T01:16:59.021Z,8.57
2023-05-25T01:19:33.862Z,8.81
2023-05-25T01:22:22.210Z,8.48
2023-05-25T01:25:07.900Z,8.52
2023-05-25T01:27:46.124Z,8.57
2023-05-25T01:30:22.823Z,8.54
2023-05-25T01:32:58.206Z,8.56
2023-05-25T01:35:32.919Z,8.00
2023-05-25T01:38:08.464Z,7.78
2023-05-25T01:40:41.719Z,7.95
2023-05-25T01:43:14.967Z,8.07
2023-05-25T01:45:49.255Z,8.33
2023-05-25T01:48:33.947Z,8.28
2023-05-25T01:51:16.672Z,8.11
2023-05-25T01:53:55.892Z,8.22
2023-05-25T01:56:33.510Z,8.42
2023-05-25T01:59:10.075Z,8.46
2023-05-25T02:01:45.169Z,7.81
2023-05-25T02:04:19.704Z,8.32
2023-05-25T02:06:53.474Z,8.63
2023-05-25T02:09:28.295Z,8.50
2023-05-25T02:12:01.540Z,8.33
2023-05-25T02:14:34.756Z,8.46
2023-05-25T02:17:08.112Z,8.76
2023-05-25T02:19:41.424Z,8.49
2023-05-25T02:22:14.625Z,8.16
2023-05-25T02:24:49.407Z,8.18
2023-05-25T02:27:22.613Z,8.49
2023-05-25T02:29:55.951Z,8.63
2023-05-25T02:32:33.703Z,7.97
2023-05-25T02:35:08.801Z,8.34
2023-05-25T02:37:42.024Z,8.79
2023-05-25T02:40:18.715Z,10.56
2023-05-25T02:42:51.873Z,10.82
2023-05-25T02:45:25.165Z,10.62
2023-05-25T02:47:58.420Z,9.89
2023-05-25T02:50:31.611Z,10.09
2023-05-25T02:53:08.554Z,9.88
2023-05-25T02:55:43.494Z,10.09
2023-05-25T02:58:22.484Z,10.15
2023-05-25T03:01:10.413Z,10.19
2023-05-25T03:03:47.305Z,9.73
2023-05-25T03:06:21.558Z,9.46
2023-05-25T03:08:56.775Z,9.06
2023-05-25T03:11:31.823Z,9.07
2023-05-25T03:14:05.961Z,9.01
2023-05-25T03:16:40.454Z,8.92
2023-05-25T03:19:13.793Z,9.14
2023-05-25T03:21:47.058Z,9.32
2023-05-25T03:24:20.427Z,9.27
2023-05-25T03:26:55.784Z,9.33
2023-05-25T03:29:29.306Z,9.72
2023-05-25T03:32:02.952Z,8.91
2023-05-25T03:34:37.938Z,8.65
2023-05-25T03:37:12.399Z,9.14
2023-05-25T03:39:46.013Z,9.08
2023-05-25T03:42:20.715Z,8.89
2023-05-25T03:44:54.285Z,8.65
2023-05-25T03:47:27.455Z,8.99
2023-05-25T03:50:00.916Z,9.16
2023-05-25T03:52:34.138Z,8.75
2023-05-25T03:55:08.677Z,9.04
2023-05-25T03:57:43.584Z,9.84
2023-05-25T04:00:17.393Z,9.92
2023-05-25T04:02:50.666Z,9.48
2023-05-25T04:05:23.909Z,10.39
2023-05-25T04:07:57.637Z,10.16
2023-05-25T04:10:30.858Z,10.23
2023-05-25T04:13:05.439Z,10.07
2023-05-25T04:15:38.731Z,9.60
2023-05-25T04:18:24.784Z,10.22
2023-05-25T04:20:58.175Z,9.96
2023-05-25T04:23:33.960Z,10.60
2023-05-25T04:26:10.360Z,10.57
2023-05-25T04:28:47.294Z,10.35
2023-05-25T04:31:41.182Z,10.20
2023-05-25T04:34:33.859Z,10.28
2023-05-25T04:37:11.086Z,10.73
2023-05-25T04:39:45.980Z,10.42
2023-05-25T04:42:19.199Z,10.44
2023-05-25T04:44:55.654Z,10.41
2023-05-25T04:47:32.173Z,11.05
2023-05-25T04:50:05.728Z,11.11
2023-05-25T04:52:38.957Z,11.14
2023-05-25T04:55:12.521Z,11.79
2023-05-25T04:57:48.221Z,11.52
2023-05-25T05:00:23.111Z,11.32
2023-05-25T05:03:00.652Z,11.32
2023-05-25T05:05:33.952Z,11.22
2023-05-25T05:08:08.978Z,11.04
2023-05-25T05:10:42.327Z,11.52
2023-05-25T05:13:15.841Z,11.51
2023-05-25T05:15:50.348Z,11.29
2023-05-25T05:18:24.046Z,11.52
2023-05-25T05:20:57.874Z,11.72
2023-05-25T05:23:33.995Z,12.20
2023-05-25T05:26:11.032Z,12.02
2023-05-25T05:28:44.393Z,11.93
2023-05-25T05:31:19.888Z,11.86
2023-05-25T05:33:53.555Z,11.66
2023-05-25T05:36:29.796Z,12.29
2023-05-25T05:39:03.723Z,12.37
2023-05-25T05:41:37.004Z,12.08
2023-05-25T05:44:12.073Z,11.97
2023-05-25T05:46:46.984Z,12.90
2023-05-25T05:49:20.220Z,12.93
2023-05-25T05:51:53.387Z,12.50
2023-05-25T05:54:27.944Z,12.62
2023-05-25T05:57:05.054Z,12.83
2023-05-25T05:59:38.750Z,12.64
2023-05-25T06:02:13.399Z,13.41
2023-05-25T06:04:46.677Z,13.41
2023-05-25T06:07:19.986Z,13.48
2023-05-25T06:09:53.152Z,13.69
2023-05-25T06:12:26.582Z,14.10
2023-05-25T06:14:59.832Z,13.61
2023-05-25T06:17:35.845Z,13.84
2023-05-25T06:20:10.077Z,13.39
2023-05-25T06:22:43.491Z,12.69
2023-05-25T06:25:16.990Z,13.25
2023-05-25T06:27:50.930Z,13.33
2023-05-25T06:30:24.487Z,13.09
2023-05-25T06:33:00.027Z,12.89
2023-05-25T06:35:34.193Z,13.55
2023-05-25T06:38:07.413Z,12.98
2023-05-25T06:40:40.608Z,13.22
2023-05-25T06:43:13.923Z,13.62
2023-05-25T06:45:55.049Z,13.31
2023-05-25T06:48:30.004Z,13.53
2023-05-25T06:51:03.196Z,13.46
2023-05-25T06:53:39.652Z,12.95
2023-05-25T06:56:16.206Z,14.01
2023-05-25T06:58:49.429Z,13.04
2023-05-25T07:01:22.712Z,12.82
2023-05-25T07:03:57.239Z,12.80
2023-05-25T07:06:33.153Z,13.27
2023-05-25T07:09:06.544Z,13.61
2023-05-25T07:11:39.757Z,13.73
2023-05-25T07:14:13.177Z,14.20
2023-05-25T07:16:46.389Z,14.30
2023-05-25T07:19:20.869Z,15.19
2023-05-25T07:21:54.095Z,14.87
2023-05-25T07:24:27.245Z,14.53
2023-05-25T07:27:01.979Z,14.34
2023-05-25T07:29:35.122Z,14.36
2023-05-25T07:32:08.502Z,15.59
2023-05-25T07:34:43.029Z,14.96
2023-05-25T07:37:16.237Z,15.13
2023-05-25T07:39:49.520Z,15.64
2023-05-25T07:42:22.850Z,15.49
2023-05-25T07:44:58.443Z,16.45
2023-05-25T07:47:31.685Z,16.16
2023-05-25T07:50:07.199Z,16.39
2023-05-25T07:52:40.404Z,16.78
2023-05-25T07:55:13.629Z,16.51
2023-05-25T07:57:46.877Z,16.63
2023-05-25T08:00:20.920Z,16.38
2023-05-25T08:02:54.235Z,16.29
2023-05-25T08:05:28.966Z,15.81
2023-05-25T08:08:02.152Z,15.91
2023-05-25T08:10:35.457Z,14.99
2023-05-25T08:13:08.749Z,15.17
2023-05-25T08:15:42.066Z,15.89
2023-05-25T08:18:15.382Z,15.41
2023-05-25T08:20:50.001Z,15.96
2023-05-25T08:23:23.183Z,16.35
2023-05-25T08:25:56.512Z,15.66
2023-05-25T08:28:29.725Z,17.13
2023-05-25T08:31:03.017Z,16.64
2023-05-25T08:33:36.259Z,16.59
2023-05-25T08:36:11.340Z,16.58
2023-05-25T08:38:44.586Z,16.91
2023-05-25T08:41:17.794Z,15.61
2023-05-25T08:43:51.246Z,15.93
2023-05-25T08:46:31.608Z,14.11
2023-05-25T08:49:09.709Z,13.01
2023-05-25T08:51:50.918Z,12.47
2023-05-25T08:54:30.298Z,11.69
2023-05-25T08:57:12.142Z,11.97
2023-05-25T08:59:51.514Z,12.36
2023-05-25T09:02:37.181Z,12.00
2023-05-25T09:05:10.967Z,12.35
2023-05-25T09:07:46.224Z,12.45
2023-05-25T09:10:20.028Z,12.02
2023-05-25T09:12:54.907Z,13.78
2023-05-25T09:15:28.448Z,13.60
2023-05-25T09:18:01.728Z,13.49
2023-05-25T09:20:37.598Z,13.14
2023-05-25T09:23:12.625Z,13.29
2023-05-25T09:25:47.873Z,13.09
2023-05-25T09:28:26.169Z,11.88
2023-05-25T09:31:00.088Z,12.61
2023-05-25T09:33:35.558Z,12.19
2023-05-25T09:36:10.449Z,12.09
2023-05-25T09:38:47.378Z,13.12
2023-05-25T09:41:21.961Z,13.02
2023-05-25T09:44:06.525Z,12.53
2023-05-25T09:46:44.944Z,12.21
2023-05-25T09:49:19.878Z,10.51
2023-05-25T09:51:53.366Z,9.38
2023-05-25T09:54:30.854Z,10.00
2023-05-25T09:57:05.287Z,11.25
2023-05-25T09:59:38.771Z,9.80
2023-05-25T10:02:12.496Z,9.87
2023-05-25T10:04:46.491Z,10.34
2023-05-25T10:07:20.632Z,9.78
2023-05-25T10:09:57.113Z,10.71
2023-05-25T10:12:32.545Z,11.24
2023-05-25T10:15:08.922Z,10.92
2023-05-25T10:17:46.751Z,10.31
2023-05-25T10:20:22.196Z,10.81
2023-05-25T10:23:02.282Z,9.95
2023-05-25T10:25:41.934Z,10.12
2023-05-25T10:28:22.175Z,10.33
2023-05-25T10:30:58.342Z,10.76
2023-05-25T10:33:34.576Z,10.75
2023-05-25T10:36:11.533Z,12.05
2023-05-25T10:38:46.150Z,13.07
2023-05-25T10:41:21.791Z,12.40
2023-05-25T10:43:55.449Z,11.84
2023-05-25T10:46:30.298Z,11.10
2023-05-25T10:49:03.932Z,11.29
2023-05-25T10:51:41.227Z,12.65
2023-05-25T10:54:15.929Z,13.58
2023-05-25T10:57:11.412Z,14.41
2023-05-25T10:59:45.700Z,15.59
2023-05-25T11:02:23.641Z,16.96
2023-05-25T11:05:30.396Z,17.37
2023-05-25T11:08:06.424Z,16.41
2023-05-25T11:10:54.662Z,15.34
2023-05-25T11:13:40.845Z,14.29
2023-05-25T11:16:25.394Z,15.54
2023-05-25T11:19:00.042Z,16.02
2023-05-25T11:21:45.592Z,16.12
2023-05-25T11:24:19.268Z,12.78
2023-05-25T11:26:58.128Z,11.17
2023-05-25T11:29:37.271Z,10.23
2023-05-25T11:32:15.219Z,10.52
2023-05-25T11:34:50.189Z,10.00
2023-05-25T11:37:31.449Z,10.86
2023-05-25T11:40:09.362Z,10.10
2023-05-25T11:42:43.702Z,9.19
2023-05-25T11:45:18.591Z,9.57
2023-05-25T11:47:51.889Z,9.47
2023-05-25T11:50:25.253Z,10.68
2023-05-25T11:52:58.788Z,12.35
2023-05-25T11:55:32.106Z,12.53
2023-05-25T11:58:07.737Z,12.78
2023-05-25T12:00:42.562Z,12.77
2023-05-25T12:03:31.463Z,11.53
2023-05-25T12:06:05.280Z,9.55
2023-05-25T12:08:39.304Z,8.92
2023-05-25T12:11:13.458Z,8.45
2023-05-25T12:13:47.650Z,9.49
2023-05-25T12:16:22.967Z,10.43
2023-05-25T12:18:57.069Z,11.75
2023-05-25T12:21:31.060Z,10.69
2023-05-25T12:24:06.308Z,8.41
2023-05-25T12:26:49.180Z,9.10
2023-05-25T12:29:22.357Z,10.42
2023-05-25T12:32:04.598Z,10.42
2023-05-25T12:34:37.854Z,10.69
2023-05-25T12:37:20.690Z,10.71
2023-05-25T12:39:53.912Z,12.28
2023-05-25T12:42:27.784Z,14.03
2023-05-25T12:45:01.942Z,13.63
2023-05-25T12:47:36.594Z,13.83
2023-05-25T12:50:15.511Z,13.52
2023-05-25T12:52:49.664Z,13.17
2023-05-25T12:55:28.350Z,13.95
2023-05-25T12:58:03.432Z,14.76
2023-05-25T13:00:38.869Z,12.81
2023-05-25T13:03:20.115Z,12.55
2023-05-25T13:06:02.477Z,11.62
2023-05-25T13:08:35.907Z,11.68
2023-05-25T13:11:09.198Z,15.11
2023-05-25T13:13:42.379Z,14.98
2023-05-25T13:16:15.866Z,14.82
2023-05-25T13:18:51.332Z,14.33
2023-05-25T13:21:24.580Z,12.81
2023-05-25T13:23:57.828Z,10.60
2023-05-25T13:26:31.042Z,10.23
2023-05-25T13:29:04.691Z,10.37
2023-05-25T13:31:37.956Z,9.73
2023-05-25T13:34:12.611Z,8.67
2023-05-25T13:36:46.112Z,8.25
2023-05-25T13:39:19.946Z,7.59
2023-05-25T13:41:53.166Z,9.65
2023-05-25T13:44:26.802Z,9.91
2023-05-25T13:47:00.062Z,9.97
2023-05-25T13:49:34.625Z,9.67
2023-05-25T13:52:08.268Z,10.99
2023-05-25T13:54:41.705Z,11.60
2023-05-25T13:57:14.913Z,10.74
2023-05-25T13:59:48.112Z,9.57
2023-05-25T14:02:21.388Z,9.47
2023-05-25T14:04:57.189Z,9.08
2023-05-25T14:07:31.319Z,9.25
2023-05-25T14:10:05.403Z,9.43
2023-05-25T14:12:39.139Z,9.84
2023-05-25T14:15:12.979Z,10.11
2023-05-25T14:17:46.161Z,10.27
2023-05-25T14:20:25.757Z,10.67
2023-05-25T14:22:59.050Z,11.12
2023-05-25T14:25:32.308Z,10.81
2023-05-25T14:28:05.642Z,9.91
2023-05-25T14:30:38.768Z,9.77
2023-05-25T14:33:14.341Z,10.94
2023-05-25T14:35:49.044Z,12.10
2023-05-25T14:38:22.254Z,12.86
2023-05-25T14:40:55.407Z,12.71
2023-05-25T14:43:28.635Z,11.91
2023-05-25T14:46:01.812Z,11.40
2023-05-25T14:48:35.019Z,9.46
2023-05-25T14:51:09.672Z,9.04
2023-05-25T14:53:42.881Z,9.19
2023-05-25T14:56:16.273Z,9.04
2023-05-25T14:58:49.493Z,8.66
2023-05-25T15:01:25.062Z,9.11
2023-05-25T15:03:58.760Z,8.54
2023-05-25T15:06:33.614Z,8.86
2023-05-25T15:09:06.895Z,8.33
2023-05-25T15:11:40.085Z,8.85
2023-05-25T15:14:13.336Z,10.66
2023-05-25T15:16:46.579Z,10.91
2023-05-25T15:19:19.792Z,9.89
2023-05-25T15:21:54.294Z,9.67
2023-05-25T15:24:27.545Z,9.06
2023-05-25T15:27:01.618Z,8.95
2023-05-25T15:29:34.892Z,8.92
2023-05-25T15:32:10.309Z,8.17
2023-05-25T15:34:43.516Z,7.29
2023-05-25T15:37:18.106Z,8.20
2023-05-25T15:39:51.313Z,8.95
2023-05-25T15:42:24.453Z,9.50
2023-05-25T15:44:57.601Z,10.17
2023-05-25T15:47:31.057Z,12.24
2023-05-25T15:50:04.322Z,10.91
2023-05-25T15:52:38.979Z,10.43
2023-05-25T15:55:12.209Z,9.78
2023-05-25T15:57:45.368Z,9.83
2023-05-25T16:00:19.192Z,8.75
2023-05-25T16:02:52.354Z,8.75
2023-05-25T16:05:25.642Z,8.58
2023-05-25T16:08:00.175Z,8.64
2023-05-25T16:10:33.458Z,8.52
2023-05-25T16:13:06.649Z,8.26
2023-05-25T16:15:39.860Z,7.94
2023-05-25T16:18:13.042Z,7.71
2023-05-25T16:20:46.294Z,7.97
2023-05-25T16:23:20.894Z,8.33
2023-05-25T16:25:54.794Z,8.61
2023-05-25T16:28:30.205Z,8.12
2023-05-25T16:31:03.389Z,8.10
2023-05-25T16:33:36.577Z,8.31
2023-05-25T16:36:13.499Z,8.17
2023-05-25T16:38:48.025Z,7.84
2023-05-25T16:41:21.262Z,7.31
2023-05-25T16:43:54.633Z,6.51
2023-05-25T16:46:27.914Z,8.11
2023-05-25T16:49:01.100Z,9.13
2023-05-25T16:51:34.249Z,9.32
2023-05-25T16:54:09.185Z,8.37
2023-05-25T16:56:42.367Z,7.79
2023-05-25T16:59:15.728Z,6.80
2023-05-25T17:01:49.092Z,6.73
2023-05-25T17:04:22.384Z,6.54
2023-05-25T17:06:56.618Z,6.27
2023-05-25T17:09:31.108Z,6.90
2023-05-25T17:12:04.416Z,8.09
2023-05-25T17:14:37.614Z,8.47
2023-05-25T17:17:10.938Z,8.68
2023-05-25T17:19:44.069Z,8.99
2023-05-25T17:22:17.270Z,8.80
2023-05-25T17:24:51.788Z,9.00
2023-05-25T17:27:24.939Z,9.76
2023-05-25T17:29:58.147Z,10.22
2023-05-25T17:32:32.049Z,9.61
2023-05-25T17:35:08.191Z,9.31
2023-05-25T17:37:41.457Z,9.61
2023-05-25T17:40:16.346Z,9.55
2023-05-25T17:42:49.527Z,9.56
2023-05-25T17:45:24.933Z,9.03
2023-05-25T17:47:58.882Z,8.00
2023-05-25T17:50:32.071Z,7.76
2023-05-25T17:53:05.442Z,7.54
2023-05-25T17:55:40.197Z,7.70
2023-05-25T17:58:13.382Z,8.31
2023-05-25T18:00:49.148Z,7.77
2023-05-25T18:03:22.508Z,7.25
2023-05-25T18:05:55.819Z,7.63
2023-05-25T18:08:28.979Z,7.10
2023-05-25T18:11:03.496Z,7.26
2023-05-25T18:13:36.682Z,7.50
2023-05-25T18:16:09.832Z,7.61
2023-05-25T18:18:43.073Z,7.75
2023-05-25T18:21:16.262Z,7.22
2023-05-25T18:23:49.588Z,7.33
2023-05-25T18:26:24.100Z,6.55
2023-05-25T18:28:57.313Z,7.06
2023-05-25T18:31:32.096Z,7.00
2023-05-25T18:34:07.511Z,6.42
2023-05-25T18:36:40.718Z,6.45
2023-05-25T18:39:13.911Z,6.09
2023-05-25T18:41:48.490Z,5.63
2023-05-25T18:44:21.622Z,5.75
2023-05-25T18:46:56.499Z,6.11
2023-05-25T18:49:32.911Z,5.56
2023-05-25T18:52:08.264Z,6.08
2023-05-25T18:54:41.517Z,5.90
2023-05-25T18:57:16.303Z,5.90
2023-05-25T18:59:49.432Z,5.97
2023-05-25T19:02:25.699Z,5.57
2023-05-25T19:04:58.918Z,5.79
2023-05-25T19:07:32.032Z,6.19
2023-05-25T19:10:05.744Z,6.19
2023-05-25T19:12:40.313Z,5.91
2023-05-25T19:15:13.542Z,6.46
2023-05-25T19:17:47.149Z,6.48
2023-05-25T19:20:20.646Z,6.18
2023-05-25T19:22:53.942Z,6.39
2023-05-25T19:25:27.116Z,5.91
2023-05-25T19:28:04.697Z,5.61
2023-05-25T19:30:39.430Z,6.04
2023-05-25T19:33:12.792Z,6.47
2023-05-25T19:35:46.361Z,7.20
2023-05-25T19:38:19.813Z,6.57
2023-05-25T19:40:53.008Z,6.37
2023-05-25T19:43:27.676Z,6.10
2023-05-25T19:46:00.967Z,6.35
2023-05-25T19:48:34.245Z,6.08
2023-05-25T19:51:07.619Z,6.36
2023-05-25T19:53:40.869Z,6.48
2023-05-25T19:56:14.083Z,6.86
2023-05-25T19:58:48.679Z,7.05
2023-05-25T20:01:21.911Z,6.72
2023-05-25T20:03:55.160Z,6.10
2023-05-25T20:06:28.669Z,6.42
2023-05-25T20:09:01.876Z,6.84
2023-05-25T20:11:36.680Z,6.48
2023-05-25T20:14:11.378Z,7.96
2023-05-25T20:16:44.604Z,9.86
2023-05-25T20:19:19.097Z,7.61
2023-05-25T20:21:53.000Z,7.70
2023-05-25T20:24:26.146Z,7.41
2023-05-25T20:26:59.929Z,7.94
2023-05-25T20:29:34.630Z,8.47
2023-05-25T20:32:07.948Z,8.95
2023-05-25T20:34:41.280Z,8.12
2023-05-25T20:37:14.574Z,7.63
2023-05-25T20:39:47.736Z,7.61
2023-05-25T20:42:21.068Z,6.86
2023-05-25T20:44:55.804Z,7.07
2023-05-25T20:47:28.982Z,6.57
2023-05-25T20:50:02.184Z,6.60
2023-05-25T20:52:35.368Z,6.59
2023-05-25T20:55:09.125Z,6.44
2023-05-25T20:57:42.318Z,6.59
2023-05-25T21:00:18.673Z,7.02
2023-05-25T21:02:52.034Z,6.67
2023-05-25T21:05:25.262Z,6.78
2023-05-25T21:07:58.519Z,7.09
2023-05-25T21:10:31.683Z,7.37
2023-05-25T21:13:04.894Z,7.34
2023-05-25T21:15:39.432Z,7.35
2023-05-25T21:18:12.654Z,8.05
2023-05-25T21:20:46.179Z,7.94
2023-05-25T21:23:19.438Z,7.75
2023-05-25T21:25:52.752Z,7.40
2023-05-25T21:28:26.440Z,7.63
2023-05-25T21:31:01.149Z,7.91
2023-05-25T21:33:35.956Z,7.81
2023-05-25T21:36:09.567Z,7.71
2023-05-25T21:38:45.268Z,8.67
2023-05-25T21:41:18.735Z,7.78
2023-05-25T21:43:51.970Z,9.14
2023-05-25T21:46:26.549Z,8.64
2023-05-25T21:48:59.823Z,8.22
2023-05-25T21:51:33.131Z,8.37
2023-05-25T21:54:06.441Z,8.97
2023-05-25T21:56:42.119Z,8.80
2023-05-25T21:59:17.744Z,9.02
2023-05-25T22:01:52.275Z,9.34
2023-05-25T22:04:25.570Z,9.92
2023-05-25T22:06:58.732Z,9.46
2023-05-25T22:09:32.604Z,9.51
2023-05-25T22:12:08.361Z,9.43
2023-05-25T22:14:41.490Z,9.47
2023-05-25T22:17:17.452Z,9.34
2023-05-25T22:20:03.282Z,10.06
2023-05-25T22:22:40.946Z,9.36
2023-05-25T22:25:14.760Z,9.62
2023-05-25T22:27:47.883Z,10.06
2023-05-25T22:30:21.240Z,10.43
2023-05-25T22:32:55.916Z,10.22
2023-05-25T22:35:29.124Z,10.60
2023-05-25T22:38:02.257Z,10.22
2023-05-25T22:40:35.469Z,10.71
2023-05-25T22:43:12.746Z,10.33
2023-05-25T22:45:46.367Z,10.84
2023-05-25T22:48:21.092Z,11.47
2023-05-25T22:50:54.300Z,11.65
2023-05-25T22:53:27.751Z,11.15
2023-05-25T22:56:00.932Z,11.53
2023-05-25T22:58:34.104Z,10.72
2023-05-25T23:01:07.324Z,11.05
2023-05-25T23:03:44.403Z,11.09
2023-05-25T23:06:17.754Z,11.56
2023-05-25T23:08:51.041Z,11.38
2023-05-25T23:11:25.427Z,11.29
2023-05-25T23:14:00.705Z,11.92
2023-05-25T23:16:34.179Z,12.11
2023-05-25T23:19:08.738Z,11.76
2023-05-25T23:21:42.016Z,13.00
2023-05-25T23:24:15.336Z,12.30
2023-05-25T23:26:48.554Z,11.18
2023-05-25T23:29:21.811Z,12.01
2023-05-25T23:31:55.068Z,12.81
2023-05-25T23:34:29.635Z,12.09
2023-05-25T23:37:06.346Z,12.06
2023-05-25T23:39:39.773Z,11.70
2023-05-25T23:42:15.422Z,11.39
2023-05-25T23:44:48.634Z,12.19
2023-05-25T23:47:21.853Z,12.21
2023-05-25T23:49:58.323Z,12.11
2023-05-25T23:52:31.594Z,11.68
2023-05-25T23:55:06.925Z,12.75
2023-05-25T23:57:43.157Z,12.60
